sensor_id;sensor_type;location;lat;lon;timestamp;P1;durP1;ratioP1;P2;durP2;ratioP2
45434;SDS011;31183;47.404;8.500;2024-02-21T00:00:39;7.85;;;3.80;;
45434;SDS011;31183;47.404;8.500;2024-02-21T00:03:06;10.18;;;4.35;;
45434;SDS011;31183;47.404;8.500;2024-02-21T00:05:33;9.45;;;4.07;;
45434;SDS011;31183;47.404;8.500;2024-02-21T00:08:01;8.57;;;3.58;;
45434;SDS011;31183;47.404;8.500;2024-02-21T00:10:29;6.70;;;3.25;;
45434;SDS011;31183;47.404;8.500;2024-02-21T00:12:58;4.47;;;3.65;;
45434;SDS011;31183;47.404;8.500;2024-02-21T00:15:28;5.93;;;3.60;;
45434;SDS011;31183;47.404;8.500;2024-02-21T00:17:55;10.20;;;4.38;;
45434;SDS011;31183;47.404;8.500;2024-02-21T00:20:21;11.40;;;4.10;;
45434;SDS011;31183;47.404;8.500;2024-02-21T00:22:48;6.55;;;3.38;;
45434;SDS011;31183;47.404;8.500;2024-02-21T00:25:15;10.65;;;4.07;;
45434;SDS011;31183;47.404;8.500;2024-02-21T00:27:42;11.10;;;4.47;;
45434;SDS011;31183;47.404;8.500;2024-02-21T00:30:09;6.20;;;3.80;;
45434;SDS011;31183;47.404;8.500;2024-02-21T00:32:36;9.35;;;5.20;;
45434;SDS011;31183;47.404;8.500;2024-02-21T00:35:03;7.97;;;3.92;;
45434;SDS011;31183;47.404;8.500;2024-02-21T00:37:31;8.07;;;4.18;;
45434;SDS011;31183;47.404;8.500;2024-02-21T00:39:58;6.70;;;4.20;;
45434;SDS011;31183;47.404;8.500;2024-02-21T00:42:25;8.10;;;4.13;;
45434;SDS011;31183;47.404;8.500;2024-02-21T00:44:52;5.38;;;4.03;;
45434;SDS011;31183;47.404;8.500;2024-02-21T00:47:18;9.48;;;4.57;;
45434;SDS011;31183;47.404;8.500;2024-02-21T00:49:45;10.40;;;5.85;;
45434;SDS011;31183;47.404;8.500;2024-02-21T00:52:12;8.00;;;4.40;;
45434;SDS011;31183;47.404;8.500;2024-02-21T00:54:38;9.93;;;4.75;;
45434;SDS011;31183;47.404;8.500;2024-02-21T00:57:18;9.63;;;4.30;;
45434;SDS011;31183;47.404;8.500;2024-02-21T00:59:45;6.43;;;4.65;;
45434;SDS011;31183;47.404;8.500;2024-02-21T01:02:12;6.00;;;3.35;;
45434;SDS011;31183;47.404;8.500;2024-02-21T01:04:39;6.60;;;3.35;;
45434;SDS011;31183;47.404;8.500;2024-02-21T01:07:05;6.93;;;3.65;;
45434;SDS011;31183;47.404;8.500;2024-02-21T01:09:32;8.20;;;4.50;;
45434;SDS011;31183;47.404;8.500;2024-02-21T01:11:59;9.00;;;3.30;;
45434;SDS011;31183;47.404;8.500;2024-02-21T01:14:26;5.32;;;3.40;;
45434;SDS011;31183;47.404;8.500;2024-02-21T01:16:53;5.45;;;3.10;;
45434;SDS011;31183;47.404;8.500;2024-02-21T01:19:20;5.97;;;3.53;;
45434;SDS011;31183;47.404;8.500;2024-02-21T01:21:47;13.85;;;4.30;;
45434;SDS011;31183;47.404;8.500;2024-02-21T01:24:14;7.38;;;3.80;;
45434;SDS011;31183;47.404;8.500;2024-02-21T01:26:41;6.15;;;3.85;;
45434;SDS011;31183;47.404;8.500;2024-02-21T01:29:08;7.30;;;4.65;;
45434;SDS011;31183;47.404;8.500;2024-02-21T01:31:35;9.50;;;5.22;;
45434;SDS011;31183;47.404;8.500;2024-02-21T01:34:02;5.07;;;3.70;;
45434;SDS011;31183;47.404;8.500;2024-02-21T01:36:29;7.07;;;5.05;;
45434;SDS011;31183;47.404;8.500;2024-02-21T01:38:56;10.80;;;4.15;;
45434;SDS011;31183;47.404;8.500;2024-02-21T01:41:22;5.68;;;4.63;;
45434;SDS011;31183;47.404;8.500;2024-02-21T01:43:49;8.48;;;4.18;;
45434;SDS011;31183;47.404;8.500;2024-02-21T01:46:15;13.18;;;5.03;;
45434;SDS011;31183;47.404;8.500;2024-02-21T01:48:42;8.55;;;4.20;;
45434;SDS011;31183;47.404;8.500;2024-02-21T01:51:09;5.22;;;4.15;;
45434;SDS011;31183;47.404;8.500;2024-02-21T01:53:37;6.68;;;4.30;;
45434;SDS011;31183;47.404;8.500;2024-02-21T01:56:06;8.40;;;4.35;;
45434;SDS011;31183;47.404;8.500;2024-02-21T01:58:36;9.70;;;4.40;;
45434;SDS011;31183;47.404;8.500;2024-02-21T02:01:03;10.07;;;4.63;;
45434;SDS011;31183;47.404;8.500;2024-02-21T02:03:30;7.95;;;4.53;;
45434;SDS011;31183;47.404;8.500;2024-02-21T02:05:57;9.00;;;5.05;;
45434;SDS011;31183;47.404;8.500;2024-02-21T02:08:24;7.53;;;4.30;;
45434;SDS011;31183;47.404;8.500;2024-02-21T02:10:51;8.77;;;3.95;;
45434;SDS011;31183;47.404;8.500;2024-02-21T02:13:19;7.32;;;3.90;;
45434;SDS011;31183;47.404;8.500;2024-02-21T02:15:46;6.60;;;4.60;;
45434;SDS011;31183;47.404;8.500;2024-02-21T02:18:15;8.88;;;3.78;;
45434;SDS011;31183;47.404;8.500;2024-02-21T02:20:43;14.90;;;6.28;;
45434;SDS011;31183;47.404;8.500;2024-02-21T02:25:48;9.57;;;4.65;;
45434;SDS011;31183;47.404;8.500;2024-02-21T02:28:19;9.00;;;4.13;;
45434;SDS011;31183;47.404;8.500;2024-02-21T02:30:46;8.73;;;4.10;;
45434;SDS011;31183;47.404;8.500;2024-02-21T02:33:13;7.43;;;4.10;;
45434;SDS011;31183;47.404;8.500;2024-02-21T02:35:40;5.75;;;3.97;;
45434;SDS011;31183;47.404;8.500;2024-02-21T02:38:07;7.57;;;4.00;;
45434;SDS011;31183;47.404;8.500;2024-02-21T02:40:34;9.20;;;4.20;;
45434;SDS011;31183;47.404;8.500;2024-02-21T02:43:01;6.28;;;4.20;;
45434;SDS011;31183;47.404;8.500;2024-02-21T02:45:29;9.20;;;4.85;;
45434;SDS011;31183;47.404;8.500;2024-02-21T02:47:56;9.88;;;4.50;;
45434;SDS011;31183;47.404;8.500;2024-02-21T02:50:24;8.10;;;4.32;;
45434;SDS011;31183;47.404;8.500;2024-02-21T02:52:51;9.18;;;4.22;;
45434;SDS011;31183;47.404;8.500;2024-02-21T02:55:22;8.95;;;4.57;;
45434;SDS011;31183;47.404;8.500;2024-02-21T02:57:49;7.45;;;4.47;;
45434;SDS011;31183;47.404;8.500;2024-02-21T03:00:17;7.97;;;4.25;;
45434;SDS011;31183;47.404;8.500;2024-02-21T03:02:45;7.65;;;4.78;;
45434;SDS011;31183;47.404;8.500;2024-02-21T03:05:15;8.63;;;4.20;;
45434;SDS011;31183;47.404;8.500;2024-02-21T03:07:43;6.10;;;4.28;;
45434;SDS011;31183;47.404;8.500;2024-02-21T03:10:11;8.20;;;4.07;;
45434;SDS011;31183;47.404;8.500;2024-02-21T03:12:39;7.38;;;3.80;;
45434;SDS011;31183;47.404;8.500;2024-02-21T03:15:07;6.47;;;4.35;;
45434;SDS011;31183;47.404;8.500;2024-02-21T03:17:34;7.10;;;4.00;;
45434;SDS011;31183;47.404;8.500;2024-02-21T03:20:04;4.63;;;3.35;;
45434;SDS011;31183;47.404;8.500;2024-02-21T03:22:32;5.28;;;3.08;;
45434;SDS011;31183;47.404;8.500;2024-02-21T03:24:59;6.20;;;3.13;;
45434;SDS011;31183;47.404;8.500;2024-02-21T03:27:26;9.95;;;3.85;;
45434;SDS011;31183;47.404;8.500;2024-02-21T03:29:53;6.57;;;3.05;;
45434;SDS011;31183;47.404;8.500;2024-02-21T03:32:19;8.38;;;2.50;;
45434;SDS011;31183;47.404;8.500;2024-02-21T03:34:46;4.82;;;2.88;;
45434;SDS011;31183;47.404;8.500;2024-02-21T03:37:14;5.07;;;2.92;;
45434;SDS011;31183;47.404;8.500;2024-02-21T03:39:41;4.75;;;2.55;;
45434;SDS011;31183;47.404;8.500;2024-02-21T03:42:08;5.63;;;2.67;;
45434;SDS011;31183;47.404;8.500;2024-02-21T03:44:35;2.72;;;2.03;;
45434;SDS011;31183;47.404;8.500;2024-02-21T03:47:01;4.15;;;2.53;;
45434;SDS011;31183;47.404;8.500;2024-02-21T03:49:28;5.18;;;2.33;;
45434;SDS011;31183;47.404;8.500;2024-02-21T03:51:55;5.90;;;2.42;;
45434;SDS011;31183;47.404;8.500;2024-02-21T03:54:22;3.92;;;2.22;;
45434;SDS011;31183;47.404;8.500;2024-02-21T03:56:50;3.35;;;2.80;;
45434;SDS011;31183;47.404;8.500;2024-02-21T03:59:17;6.45;;;2.67;;
45434;SDS011;31183;47.404;8.500;2024-02-21T04:01:44;5.70;;;2.53;;
45434;SDS011;31183;47.404;8.500;2024-02-21T04:04:11;3.38;;;2.50;;
45434;SDS011;31183;47.404;8.500;2024-02-21T04:06:45;4.70;;;2.50;;
45434;SDS011;31183;47.404;8.500;2024-02-21T04:09:13;8.05;;;2.65;;
45434;SDS011;31183;47.404;8.500;2024-02-21T04:11:40;2.85;;;2.10;;
45434;SDS011;31183;47.404;8.500;2024-02-21T04:14:07;3.30;;;2.15;;
45434;SDS011;31183;47.404;8.500;2024-02-21T04:16:34;4.22;;;2.13;;
45434;SDS011;31183;47.404;8.500;2024-02-21T04:19:01;3.88;;;2.30;;
45434;SDS011;31183;47.404;8.500;2024-02-21T04:21:28;6.93;;;3.45;;
45434;SDS011;31183;47.404;8.500;2024-02-21T04:23:55;5.45;;;3.75;;
45434;SDS011;31183;47.404;8.500;2024-02-21T04:26:22;1.60;;;1.50;;
45434;SDS011;31183;47.404;8.500;2024-02-21T04:28:49;2.55;;;1.88;;
45434;SDS011;31183;47.404;8.500;2024-02-21T04:31:16;2.92;;;2.10;;
45434;SDS011;31183;47.404;8.500;2024-02-21T04:33:43;2.90;;;2.40;;
45434;SDS011;31183;47.404;8.500;2024-02-21T04:36:10;6.00;;;1.90;;
45434;SDS011;31183;47.404;8.500;2024-02-21T04:38:37;3.88;;;1.77;;
45434;SDS011;31183;47.404;8.500;2024-02-21T04:41:05;3.53;;;1.95;;
45434;SDS011;31183;47.404;8.500;2024-02-21T04:43:32;2.25;;;2.05;;
45434;SDS011;31183;47.404;8.500;2024-02-21T04:45:59;2.92;;;2.47;;
45434;SDS011;31183;47.404;8.500;2024-02-21T04:48:26;4.10;;;3.10;;
45434;SDS011;31183;47.404;8.500;2024-02-21T04:50:53;5.00;;;1.92;;
45434;SDS011;31183;47.404;8.500;2024-02-21T04:53:20;3.47;;;1.65;;
45434;SDS011;31183;47.404;8.500;2024-02-21T04:55:48;2.83;;;1.60;;
45434;SDS011;31183;47.404;8.500;2024-02-21T04:58:15;2.88;;;2.05;;
45434;SDS011;31183;47.404;8.500;2024-02-21T05:00:41;2.63;;;1.65;;
45434;SDS011;31183;47.404;8.500;2024-02-21T05:03:08;2.67;;;1.73;;
45434;SDS011;31183;47.404;8.500;2024-02-21T05:05:35;2.40;;;1.40;;
45434;SDS011;31183;47.404;8.500;2024-02-21T05:08:02;2.22;;;1.70;;
45434;SDS011;31183;47.404;8.500;2024-02-21T05:10:30;2.08;;;1.70;;
45434;SDS011;31183;47.404;8.500;2024-02-21T05:12:57;2.30;;;1.35;;
45434;SDS011;31183;47.404;8.500;2024-02-21T05:15:25;2.72;;;1.83;;
45434;SDS011;31183;47.404;8.500;2024-02-21T05:17:52;3.13;;;1.40;;
45434;SDS011;31183;47.404;8.500;2024-02-21T05:20:19;2.75;;;1.58;;
45434;SDS011;31183;47.404;8.500;2024-02-21T05:22:46;2.60;;;2.28;;
45434;SDS011;31183;47.404;8.500;2024-02-21T05:25:13;2.42;;;1.50;;
45434;SDS011;31183;47.404;8.500;2024-02-21T05:27:40;4.20;;;1.58;;
45434;SDS011;31183;47.404;8.500;2024-02-21T05:30:07;2.78;;;1.48;;
45434;SDS011;31183;47.404;8.500;2024-02-21T05:32:34;2.72;;;1.27;;
45434;SDS011;31183;47.404;8.500;2024-02-21T05:35:00;2.85;;;1.95;;
45434;SDS011;31183;47.404;8.500;2024-02-21T05:37:27;5.38;;;2.03;;
45434;SDS011;31183;47.404;8.500;2024-02-21T05:39:54;3.33;;;2.40;;
45434;SDS011;31183;47.404;8.500;2024-02-21T05:42:20;3.25;;;2.28;;
45434;SDS011;31183;47.404;8.500;2024-02-21T05:44:47;5.63;;;2.30;;
45434;SDS011;31183;47.404;8.500;2024-02-21T05:47:14;5.70;;;2.33;;
45434;SDS011;31183;47.404;8.500;2024-02-21T05:49:42;7.95;;;2.42;;
45434;SDS011;31183;47.404;8.500;2024-02-21T05:52:09;2.97;;;2.03;;
45434;SDS011;31183;47.404;8.500;2024-02-21T05:54:39;3.53;;;2.90;;
45434;SDS011;31183;47.404;8.500;2024-02-21T05:57:07;8.82;;;3.47;;
45434;SDS011;31183;47.404;8.500;2024-02-21T05:59:34;7.13;;;3.00;;
45434;SDS011;31183;47.404;8.500;2024-02-21T06:02:02;10.00;;;3.85;;
45434;SDS011;31183;47.404;8.500;2024-02-21T06:04:30;5.43;;;3.90;;
45434;SDS011;31183;47.404;8.500;2024-02-21T06:06:57;6.70;;;3.88;;
45434;SDS011;31183;47.404;8.500;2024-02-21T06:09:24;6.55;;;3.92;;
45434;SDS011;31183;47.404;8.500;2024-02-21T06:11:51;7.47;;;4.45;;
45434;SDS011;31183;47.404;8.500;2024-02-21T06:14:18;6.53;;;4.30;;
45434;SDS011;31183;47.404;8.500;2024-02-21T06:16:45;9.07;;;3.70;;
45434;SDS011;31183;47.404;8.500;2024-02-21T06:19:12;9.10;;;3.95;;
45434;SDS011;31183;47.404;8.500;2024-02-21T06:21:40;7.25;;;3.90;;
45434;SDS011;31183;47.404;8.500;2024-02-21T06:24:07;10.57;;;4.70;;
45434;SDS011;31183;47.404;8.500;2024-02-21T06:26:34;8.65;;;4.90;;
45434;SDS011;31183;47.404;8.500;2024-02-21T06:29:03;7.60;;;5.85;;
45434;SDS011;31183;47.404;8.500;2024-02-21T06:31:30;5.88;;;4.65;;
45434;SDS011;31183;47.404;8.500;2024-02-21T06:33:58;6.15;;;4.07;;
45434;SDS011;31183;47.404;8.500;2024-02-21T06:36:25;8.38;;;4.32;;
45434;SDS011;31183;47.404;8.500;2024-02-21T06:38:52;9.02;;;4.15;;
45434;SDS011;31183;47.404;8.500;2024-02-21T06:41:18;6.13;;;4.38;;
45434;SDS011;31183;47.404;8.500;2024-02-21T06:43:46;9.63;;;4.85;;
45434;SDS011;31183;47.404;8.500;2024-02-21T06:46:24;7.00;;;4.00;;
45434;SDS011;31183;47.404;8.500;2024-02-21T06:48:51;7.65;;;4.00;;
45434;SDS011;31183;47.404;8.500;2024-02-21T06:51:18;8.60;;;4.70;;
45434;SDS011;31183;47.404;8.500;2024-02-21T06:53:45;6.07;;;4.07;;
45434;SDS011;31183;47.404;8.500;2024-02-21T06:56:12;9.82;;;5.95;;
45434;SDS011;31183;47.404;8.500;2024-02-21T06:58:39;10.90;;;5.40;;
45434;SDS011;31183;47.404;8.500;2024-02-21T07:01:06;11.98;;;5.53;;
45434;SDS011;31183;47.404;8.500;2024-02-21T07:03:33;8.32;;;5.95;;
45434;SDS011;31183;47.404;8.500;2024-02-21T07:06:00;9.93;;;6.65;;
45434;SDS011;31183;47.404;8.500;2024-02-21T07:08:27;13.07;;;6.40;;
45434;SDS011;31183;47.404;8.500;2024-02-21T07:10:54;11.65;;;6.22;;
45434;SDS011;31183;47.404;8.500;2024-02-21T07:13:21;9.05;;;5.55;;
45434;SDS011;31183;47.404;8.500;2024-02-21T07:15:49;8.23;;;5.60;;
45434;SDS011;31183;47.404;8.500;2024-02-21T07:18:16;10.88;;;6.28;;
45434;SDS011;31183;47.404;8.500;2024-02-21T07:20:43;9.48;;;6.10;;
45434;SDS011;31183;47.404;8.500;2024-02-21T07:23:10;13.05;;;5.63;;
45434;SDS011;31183;47.404;8.500;2024-02-21T07:25:37;7.57;;;4.78;;
45434;SDS011;31183;47.404;8.500;2024-02-21T07:28:04;8.75;;;4.95;;
45434;SDS011;31183;47.404;8.500;2024-02-21T07:30:31;9.35;;;5.47;;
45434;SDS011;31183;47.404;8.500;2024-02-21T07:32:58;11.30;;;5.70;;
45434;SDS011;31183;47.404;8.500;2024-02-21T07:35:24;8.32;;;5.63;;
45434;SDS011;31183;47.404;8.500;2024-02-21T07:37:51;10.32;;;5.88;;
45434;SDS011;31183;47.404;8.500;2024-02-21T07:40:18;10.38;;;5.05;;
45434;SDS011;31183;47.404;8.500;2024-02-21T07:42:45;5.95;;;4.28;;
45434;SDS011;31183;47.404;8.500;2024-02-21T07:45:17;9.98;;;4.43;;
45434;SDS011;31183;47.404;8.500;2024-02-21T07:47:45;5.45;;;4.70;;
45434;SDS011;31183;47.404;8.500;2024-02-21T07:50:12;8.40;;;4.20;;
45434;SDS011;31183;47.404;8.500;2024-02-21T07:52:39;6.15;;;4.05;;
45434;SDS011;31183;47.404;8.500;2024-02-21T07:55:06;7.65;;;3.95;;
45434;SDS011;31183;47.404;8.500;2024-02-21T07:57:33;5.25;;;4.35;;
45434;SDS011;31183;47.404;8.500;2024-02-21T07:59:59;5.00;;;3.63;;
45434;SDS011;31183;47.404;8.500;2024-02-21T08:02:26;6.68;;;3.85;;
45434;SDS011;31183;47.404;8.500;2024-02-21T08:04:53;5.70;;;3.40;;
45434;SDS011;31183;47.404;8.500;2024-02-21T08:07:20;9.40;;;4.38;;
45434;SDS011;31183;47.404;8.500;2024-02-21T08:09:47;9.20;;;4.82;;
45434;SDS011;31183;47.404;8.500;2024-02-21T08:12:14;12.82;;;4.38;;
45434;SDS011;31183;47.404;8.500;2024-02-21T08:14:41;10.27;;;4.03;;
45434;SDS011;31183;47.404;8.500;2024-02-21T08:17:08;7.28;;;4.20;;
45434;SDS011;31183;47.404;8.500;2024-02-21T08:19:36;8.82;;;3.83;;
45434;SDS011;31183;47.404;8.500;2024-02-21T08:22:02;8.75;;;3.90;;
45434;SDS011;31183;47.404;8.500;2024-02-21T08:24:29;6.70;;;4.43;;
45434;SDS011;31183;47.404;8.500;2024-02-21T08:26:56;5.70;;;4.13;;
45434;SDS011;31183;47.404;8.500;2024-02-21T08:29:23;6.43;;;4.03;;
45434;SDS011;31183;47.404;8.500;2024-02-21T08:31:49;6.50;;;4.10;;
45434;SDS011;31183;47.404;8.500;2024-02-21T08:34:16;11.50;;;4.88;;
45434;SDS011;31183;47.404;8.500;2024-02-21T08:36:44;6.80;;;3.65;;
45434;SDS011;31183;47.404;8.500;2024-02-21T08:39:10;7.95;;;4.10;;
45434;SDS011;31183;47.404;8.500;2024-02-21T08:41:37;7.35;;;4.72;;
45434;SDS011;31183;47.404;8.500;2024-02-21T08:44:22;3.95;;;3.30;;
45434;SDS011;31183;47.404;8.500;2024-02-21T08:49:19;5.05;;;3.63;;
45434;SDS011;31183;47.404;8.500;2024-02-21T08:51:46;7.65;;;4.25;;
45434;SDS011;31183;47.404;8.500;2024-02-21T08:54:14;6.25;;;3.70;;
45434;SDS011;31183;47.404;8.500;2024-02-21T08:56:41;7.32;;;3.20;;
45434;SDS011;31183;47.404;8.500;2024-02-21T08:59:07;11.15;;;3.53;;
45434;SDS011;31183;47.404;8.500;2024-02-21T09:01:34;8.20;;;3.80;;
45434;SDS011;31183;47.404;8.500;2024-02-21T09:04:02;5.75;;;3.58;;
45434;SDS011;31183;47.404;8.500;2024-02-21T09:06:29;5.70;;;3.58;;
45434;SDS011;31183;47.404;8.500;2024-02-21T09:08:58;5.18;;;3.00;;
45434;SDS011;31183;47.404;8.500;2024-02-21T09:11:25;5.28;;;3.70;;
45434;SDS011;31183;47.404;8.500;2024-02-21T09:13:53;5.00;;;2.90;;
45434;SDS011;31183;47.404;8.500;2024-02-21T09:16:21;3.30;;;2.80;;
45434;SDS011;31183;47.404;8.500;2024-02-21T09:18:49;3.55;;;2.67;;
45434;SDS011;31183;47.404;8.500;2024-02-21T09:21:16;5.55;;;2.38;;
45434;SDS011;31183;47.404;8.500;2024-02-21T09:23:43;6.18;;;3.30;;
45434;SDS011;31183;47.404;8.500;2024-02-21T09:26:10;3.70;;;2.55;;
45434;SDS011;31183;47.404;8.500;2024-02-21T09:28:44;3.35;;;2.50;;
45434;SDS011;31183;47.404;8.500;2024-02-21T09:31:12;6.47;;;2.80;;
45434;SDS011;31183;47.404;8.500;2024-02-21T09:33:38;4.97;;;2.83;;
45434;SDS011;31183;47.404;8.500;2024-02-21T09:36:06;5.22;;;2.55;;
45434;SDS011;31183;47.404;8.500;2024-02-21T09:38:33;2.95;;;2.50;;
45434;SDS011;31183;47.404;8.500;2024-02-21T09:41:01;8.95;;;2.78;;
45434;SDS011;31183;47.404;8.500;2024-02-21T09:43:38;5.82;;;2.70;;
45434;SDS011;31183;47.404;8.500;2024-02-21T09:46:07;4.45;;;2.67;;
45434;SDS011;31183;47.404;8.500;2024-02-21T09:51:23;7.50;;;3.05;;
45434;SDS011;31183;47.404;8.500;2024-02-21T09:53:51;8.13;;;3.08;;
45434;SDS011;31183;47.404;8.500;2024-02-21T09:56:36;5.35;;;2.38;;
45434;SDS011;31183;47.404;8.500;2024-02-21T09:59:03;3.10;;;2.58;;
45434;SDS011;31183;47.404;8.500;2024-02-21T10:01:31;5.35;;;2.88;;
45434;SDS011;31183;47.404;8.500;2024-02-21T10:04:00;6.03;;;2.72;;
45434;SDS011;31183;47.404;8.500;2024-02-21T10:06:29;5.47;;;2.85;;
45434;SDS011;31183;47.404;8.500;2024-02-21T10:08:56;6.20;;;2.30;;
45434;SDS011;31183;47.404;8.500;2024-02-21T10:11:26;3.88;;;2.22;;
45434;SDS011;31183;47.404;8.500;2024-02-21T10:14:03;5.90;;;2.70;;
45434;SDS011;31183;47.404;8.500;2024-02-21T10:16:33;4.13;;;2.70;;
45434;SDS011;31183;47.404;8.500;2024-02-21T10:19:01;4.85;;;2.58;;
45434;SDS011;31183;47.404;8.500;2024-02-21T10:21:30;3.00;;;2.47;;
45434;SDS011;31183;47.404;8.500;2024-02-21T10:23:57;6.00;;;2.80;;
45434;SDS011;31183;47.404;8.500;2024-02-21T10:26:24;4.47;;;3.30;;
45434;SDS011;31183;47.404;8.500;2024-02-21T10:28:50;4.32;;;2.85;;
45434;SDS011;31183;47.404;8.500;2024-02-21T10:31:25;3.78;;;2.45;;
45434;SDS011;31183;47.404;8.500;2024-02-21T10:33:59;5.68;;;3.00;;
45434;SDS011;31183;47.404;8.500;2024-02-21T10:36:29;5.53;;;3.20;;
45434;SDS011;31183;47.404;8.500;2024-02-21T10:38:56;3.40;;;2.90;;
45434;SDS011;31183;47.404;8.500;2024-02-21T10:41:23;5.72;;;2.83;;
45434;SDS011;31183;47.404;8.500;2024-02-21T10:43:51;7.03;;;3.72;;
45434;SDS011;31183;47.404;8.500;2024-02-21T10:46:22;4.65;;;2.67;;
45434;SDS011;31183;47.404;8.500;2024-02-21T10:49:19;3.38;;;2.28;;
45434;SDS011;31183;47.404;8.500;2024-02-21T10:51:43;3.88;;;2.35;;
45434;SDS011;31183;47.404;8.500;2024-02-21T10:56:38;5.82;;;2.85;;
45434;SDS011;31183;47.404;8.500;2024-02-21T10:59:07;3.58;;;2.45;;
45434;SDS011;31183;47.404;8.500;2024-02-21T11:01:34;2.40;;;2.10;;
45434;SDS011;31183;47.404;8.500;2024-02-21T11:04:02;4.93;;;2.58;;
45434;SDS011;31183;47.404;8.500;2024-02-21T11:06:34;5.80;;;2.47;;
45434;SDS011;31183;47.404;8.500;2024-02-21T11:09:03;4.22;;;2.42;;
45434;SDS011;31183;47.404;8.500;2024-02-21T11:11:35;3.28;;;2.88;;
45434;SDS011;31183;47.404;8.500;2024-02-21T11:14:07;5.53;;;2.58;;
45434;SDS011;31183;47.404;8.500;2024-02-21T11:16:38;4.10;;;2.63;;
45434;SDS011;31183;47.404;8.500;2024-02-21T11:19:07;3.70;;;3.05;;
45434;SDS011;31183;47.404;8.500;2024-02-21T11:21:36;4.03;;;2.63;;
45434;SDS011;31183;47.404;8.500;2024-02-21T11:24:04;3.47;;;2.28;;
45434;SDS011;31183;47.404;8.500;2024-02-21T11:26:32;3.08;;;2.53;;
45434;SDS011;31183;47.404;8.500;2024-02-21T11:29:02;3.58;;;2.53;;
45434;SDS011;31183;47.404;8.500;2024-02-21T11:34:10;3.88;;;2.70;;
45434;SDS011;31183;47.404;8.500;2024-02-21T11:39:25;5.43;;;3.10;;
45434;SDS011;31183;47.404;8.500;2024-02-21T11:42:26;4.93;;;2.50;;
45434;SDS011;31183;47.404;8.500;2024-02-21T11:44:46;5.00;;;2.40;;
45434;SDS011;31183;47.404;8.500;2024-02-21T11:47:13;5.63;;;2.80;;
45434;SDS011;31183;47.404;8.500;2024-02-21T11:49:47;3.05;;;2.40;;
45434;SDS011;31183;47.404;8.500;2024-02-21T11:52:23;6.32;;;3.15;;
45434;SDS011;31183;47.404;8.500;2024-02-21T11:54:55;3.65;;;2.80;;
45434;SDS011;31183;47.404;8.500;2024-02-21T11:57:26;6.50;;;2.80;;
45434;SDS011;31183;47.404;8.500;2024-02-21T11:59:53;4.05;;;2.42;;
45434;SDS011;31183;47.404;8.500;2024-02-21T12:02:25;3.90;;;2.70;;
45434;SDS011;31183;47.404;8.500;2024-02-21T12:04:52;4.35;;;2.88;;
45434;SDS011;31183;47.404;8.500;2024-02-21T12:07:21;4.47;;;3.50;;
45434;SDS011;31183;47.404;8.500;2024-02-21T12:09:50;3.80;;;2.55;;
45434;SDS011;31183;47.404;8.500;2024-02-21T12:12:19;3.17;;;2.88;;
45434;SDS011;31183;47.404;8.500;2024-02-21T12:14:53;4.13;;;2.70;;
45434;SDS011;31183;47.404;8.500;2024-02-21T12:17:22;5.13;;;3.40;;
45434;SDS011;31183;47.404;8.500;2024-02-21T12:19:50;4.70;;;2.88;;
45434;SDS011;31183;47.404;8.500;2024-02-21T12:22:20;4.55;;;2.75;;
45434;SDS011;31183;47.404;8.500;2024-02-21T12:24:47;5.60;;;2.87;;
45434;SDS011;31183;47.404;8.500;2024-02-21T12:27:15;4.43;;;2.95;;
45434;SDS011;31183;47.404;8.500;2024-02-21T12:29:41;6.78;;;3.30;;
45434;SDS011;31183;47.404;8.500;2024-02-21T12:32:08;8.20;;;3.10;;
45434;SDS011;31183;47.404;8.500;2024-02-21T12:34:35;4.18;;;2.72;;
45434;SDS011;31183;47.404;8.500;2024-02-21T12:37:18;4.47;;;2.78;;
45434;SDS011;31183;47.404;8.500;2024-02-21T12:39:46;5.10;;;3.35;;
45434;SDS011;31183;47.404;8.500;2024-02-21T12:42:13;3.15;;;2.60;;
45434;SDS011;31183;47.404;8.500;2024-02-21T12:44:40;3.28;;;2.70;;
45434;SDS011;31183;47.404;8.500;2024-02-21T12:47:09;4.70;;;2.97;;
45434;SDS011;31183;47.404;8.500;2024-02-21T12:49:36;3.28;;;2.50;;
45434;SDS011;31183;47.404;8.500;2024-02-21T12:52:07;3.00;;;2.70;;
45434;SDS011;31183;47.404;8.500;2024-02-21T12:54:34;3.47;;;2.45;;
45434;SDS011;31183;47.404;8.500;2024-02-21T12:57:00;4.55;;;2.70;;
45434;SDS011;31183;47.404;8.500;2024-02-21T12:59:29;2.50;;;2.03;;
45434;SDS011;31183;47.404;8.500;2024-02-21T13:01:56;4.97;;;2.78;;
45434;SDS011;31183;47.404;8.500;2024-02-21T13:04:23;3.65;;;2.33;;
45434;SDS011;31183;47.404;8.500;2024-02-21T13:06:51;3.15;;;2.40;;
45434;SDS011;31183;47.404;8.500;2024-02-21T13:09:18;3.88;;;2.47;;
45434;SDS011;31183;47.404;8.500;2024-02-21T13:11:45;3.38;;;2.30;;
45434;SDS011;31183;47.404;8.500;2024-02-21T13:14:12;2.50;;;2.22;;
45434;SDS011;31183;47.404;8.500;2024-02-21T13:16:39;6.25;;;3.20;;
45434;SDS011;31183;47.404;8.500;2024-02-21T13:19:06;2.33;;;2.13;;
45434;SDS011;31183;47.404;8.500;2024-02-21T13:21:35;2.60;;;2.40;;
45434;SDS011;31183;47.404;8.500;2024-02-21T13:24:02;3.25;;;2.22;;
45434;SDS011;31183;47.404;8.500;2024-02-21T13:26:29;2.92;;;2.03;;
45434;SDS011;31183;47.404;8.500;2024-02-21T13:28:55;4.07;;;2.13;;
45434;SDS011;31183;47.404;8.500;2024-02-21T13:31:22;4.88;;;2.78;;
45434;SDS011;31183;47.404;8.500;2024-02-21T13:33:51;6.13;;;2.30;;
45434;SDS011;31183;47.404;8.500;2024-02-21T13:36:18;4.03;;;2.85;;
45434;SDS011;31183;47.404;8.500;2024-02-21T13:38:45;4.15;;;2.30;;
45434;SDS011;31183;47.404;8.500;2024-02-21T13:41:13;5.45;;;2.35;;
45434;SDS011;31183;47.404;8.500;2024-02-21T13:43:39;2.85;;;2.15;;
45434;SDS011;31183;47.404;8.500;2024-02-21T13:46:06;2.00;;;1.80;;
45434;SDS011;31183;47.404;8.500;2024-02-21T13:48:36;3.97;;;2.00;;
45434;SDS011;31183;47.404;8.500;2024-02-21T13:51:03;4.47;;;2.35;;
45434;SDS011;31183;47.404;8.500;2024-02-21T13:53:30;4.47;;;2.35;;
45434;SDS011;31183;47.404;8.500;2024-02-21T13:55:57;4.25;;;2.38;;
45434;SDS011;31183;47.404;8.500;2024-02-21T13:58:24;3.50;;;2.38;;
45434;SDS011;31183;47.404;8.500;2024-02-21T14:00:52;2.35;;;2.03;;
45434;SDS011;31183;47.404;8.500;2024-02-21T14:03:19;2.22;;;1.83;;
45434;SDS011;31183;47.404;8.500;2024-02-21T14:05:47;3.78;;;2.28;;
45434;SDS011;31183;47.404;8.500;2024-02-21T14:08:14;4.60;;;1.90;;
45434;SDS011;31183;47.404;8.500;2024-02-21T14:10:41;2.80;;;1.92;;
45434;SDS011;31183;47.404;8.500;2024-02-21T14:13:08;3.72;;;2.33;;
45434;SDS011;31183;47.404;8.500;2024-02-21T14:15:35;3.53;;;2.20;;
45434;SDS011;31183;47.404;8.500;2024-02-21T14:18:04;2.17;;;1.98;;
45434;SDS011;31183;47.404;8.500;2024-02-21T14:20:35;3.63;;;2.22;;
45434;SDS011;31183;47.404;8.500;2024-02-21T14:23:03;3.45;;;1.98;;
45434;SDS011;31183;47.404;8.500;2024-02-21T14:25:31;4.03;;;1.92;;
45434;SDS011;31183;47.404;8.500;2024-02-21T14:27:59;4.72;;;3.08;;
45434;SDS011;31183;47.404;8.500;2024-02-21T14:30:26;4.05;;;2.30;;
45434;SDS011;31183;47.404;8.500;2024-02-21T14:32:53;2.40;;;2.00;;
45434;SDS011;31183;47.404;8.500;2024-02-21T14:35:20;2.63;;;1.95;;
45434;SDS011;31183;47.404;8.500;2024-02-21T14:37:48;2.58;;;1.88;;
45434;SDS011;31183;47.404;8.500;2024-02-21T14:42:47;3.83;;;2.22;;
45434;SDS011;31183;47.404;8.500;2024-02-21T14:45:13;3.13;;;2.17;;
45434;SDS011;31183;47.404;8.500;2024-02-21T14:47:40;4.25;;;2.10;;
45434;SDS011;31183;47.404;8.500;2024-02-21T14:50:07;4.10;;;1.90;;
45434;SDS011;31183;47.404;8.500;2024-02-21T14:52:34;3.97;;;2.30;;
45434;SDS011;31183;47.404;8.500;2024-02-21T14:55:02;2.10;;;1.83;;
45434;SDS011;31183;47.404;8.500;2024-02-21T14:57:29;2.58;;;2.25;;
45434;SDS011;31183;47.404;8.500;2024-02-21T14:59:56;3.22;;;2.22;;
45434;SDS011;31183;47.404;8.500;2024-02-21T15:02:25;3.33;;;2.00;;
45434;SDS011;31183;47.404;8.500;2024-02-21T15:04:54;4.45;;;1.90;;
45434;SDS011;31183;47.404;8.500;2024-02-21T15:07:21;3.45;;;1.75;;